Decoded Metar for PALH (ANCHORAGE/LAKE H in AK, USA) (IATA:LHD) | Meteo·Mobile Aviation Weather
aviador You're here:

PALH Decoded Metar

ANCHORAGE/LAKE H in AK, USA
Report Time2019-04-23 07:53:00
UTC Time2019-04-23 08:04:50
Flight Rules vfr VFR
WindCalm
Visibility9999 m
Phenomena:N/A
Clouds:Broken 049 Hf
Overcast 060 Hf
Expected CloudBase > 1,200 ft AGL from Temp-Dew spread
Ceiling4,900 ft
Temp-1°C (ISA -16)
Dew Point-4°C (80% RH)
AAT-3.5°C
QNH1002 hPa
Density Alt-1,430 ft
Elevation72 ft
Report Wrong Elevation
Raw Report
PALH 230753Z 00000KT 10SM BKN049 OVC060 M01/M04 A2960 RMK AO2
SNE29 SLP025 P0000 T10061039=

Extra information for PALH:More info

Metar Taf Metar & Taf Last 4 Metars F.Rules Stats Wind Profile Meteogram Temp Stats Airport Information Weather charts Add Link Nearby VenuesMetar ALERT Operation Metar Decoded Social comments

AIRNAV info for PALH